Los Menucos, Argentina
Current Conditions -  °F | °C
As of 5:00 PM on Friday 24 Oct 2014 (Local Time) from SAZN Reporting Station
Clear Clear  
Wind Chill: 81°   Ceiling: Unl
Heat Index: 81°   Visibility: 6mi
Dew Point: 54°   Wind: 3mph
Humidity: 39%   Direction: 90°E
Pressure: 29.94"   Gusts: NA
Location:  40.83°S, 68.13°W
Report Text: SAZN 242000Z 09003KT CAVOK 27/12 Q1014
Loading
Personal Weather Stations






























Interactive Weather Map
Tropical Storm Tracking
New forecast layout! Learn more

10-Day Weather Forecast

Advertisements
Track Severe Weather on mobile